sensor_id;sensor_type;location;lat;lon;timestamp;temperature;humidity
56240;DHT22;42154;51.992;5.896;2022-11-10T00:00:27;10.40;99.90
56240;DHT22;42154;51.992;5.896;2022-11-10T00:03:11;10.40;99.90
56240;DHT22;42154;51.992;5.896;2022-11-10T00:05:55;10.40;99.90
56240;DHT22;42154;51.992;5.896;2022-11-10T00:08:39;10.40;99.90
56240;DHT22;42154;51.992;5.896;2022-11-10T00:11:24;10.40;99.90
56240;DHT22;42154;51.992;5.896;2022-11-10T00:14:09;10.40;99.90
56240;DHT22;42154;51.992;5.896;2022-11-10T00:17:12;10.30;99.90
56240;DHT22;42154;51.992;5.896;2022-11-10T00:19:56;10.30;99.90
56240;DHT22;42154;51.992;5.896;2022-11-10T00:22:40;10.30;99.90
56240;DHT22;42154;51.992;5.896;2022-11-10T00:25:25;10.20;99.90
56240;DHT22;42154;51.992;5.896;2022-11-10T00:28:11;10.20;99.90
56240;DHT22;42154;51.992;5.896;2022-11-10T00:30:55;10.20;99.90
56240;DHT22;42154;51.992;5.896;2022-11-10T00:33:41;10.20;99.90
56240;DHT22;42154;51.992;5.896;2022-11-10T00:36:26;10.10;99.90
56240;DHT22;42154;51.992;5.896;2022-11-10T00:39:10;10.10;99.90
56240;DHT22;42154;51.992;5.896;2022-11-10T00:41:55;10.10;99.90
56240;DHT22;42154;51.992;5.896;2022-11-10T00:44:39;10.10;99.90
56240;DHT22;42154;51.992;5.896;2022-11-10T00:47:24;10.10;99.90
56240;DHT22;42154;51.992;5.896;2022-11-10T00:50:08;10.00;99.90
56240;DHT22;42154;51.992;5.896;2022-11-10T00:52:52;10.00;99.90
56240;DHT22;42154;51.992;5.896;2022-11-10T00:55:38;10.00;99.90
56240;DHT22;42154;51.992;5.896;2022-11-10T00:58:22;9.90;99.90
56240;DHT22;42154;51.992;5.896;2022-11-10T01:01:07;9.90;99.90
56240;DHT22;42154;51.992;5.896;2022-11-10T01:03:52;9.90;99.90
56240;DHT22;42154;51.992;5.896;2022-11-10T01:06:37;9.90;99.90
56240;DHT22;42154;51.992;5.896;2022-11-10T01:09:21;9.90;99.90
56240;DHT22;42154;51.992;5.896;2022-11-10T01:12:05;9.90;99.90
56240;DHT22;42154;51.992;5.896;2022-11-10T01:14:49;9.90;99.90
56240;DHT22;42154;51.992;5.896;2022-11-10T01:17:34;9.80;99.90
56240;DHT22;42154;51.992;5.896;2022-11-10T01:20:18;9.80;99.90
56240;DHT22;42154;51.992;5.896;2022-11-10T01:23:03;9.80;99.90
56240;DHT22;42154;51.992;5.896;2022-11-10T01:25:48;9.80;99.90
56240;DHT22;42154;51.992;5.896;2022-11-10T01:28:33;9.80;99.90
56240;DHT22;42154;51.992;5.896;2022-11-10T01:31:19;9.80;99.90
56240;DHT22;42154;51.992;5.896;2022-11-10T01:34:04;9.70;99.90
56240;DHT22;42154;51.992;5.896;2022-11-10T01:36:48;9.70;99.90
56240;DHT22;42154;51.992;5.896;2022-11-10T01:39:32;9.70;99.90
56240;DHT22;42154;51.992;5.896;2022-11-10T01:42:28;9.70;99.90
56240;DHT22;42154;51.992;5.896;2022-11-10T01:48:06;9.70;99.90
56240;DHT22;42154;51.992;5.896;2022-11-10T01:50:52;9.70;99.90
56240;DHT22;42154;51.992;5.896;2022-11-10T01:53:41;9.60;99.90
56240;DHT22;42154;51.992;5.896;2022-11-10T01:56:31;9.70;99.90
56240;DHT22;42154;51.992;5.896;2022-11-10T01:59:25;9.70;99.90
56240;DHT22;42154;51.992;5.896;2022-11-10T02:02:24;9.70;99.90
56240;DHT22;42154;51.992;5.896;2022-11-10T02:05:09;9.70;99.90
56240;DHT22;42154;51.992;5.896;2022-11-10T02:07:53;9.60;99.90
56240;DHT22;42154;51.992;5.896;2022-11-10T02:10:39;9.60;99.90
56240;DHT22;42154;51.992;5.896;2022-11-10T02:13:24;9.70;99.90
56240;DHT22;42154;51.992;5.896;2022-11-10T02:16:08;9.70;99.90
56240;DHT22;42154;51.992;5.896;2022-11-10T02:18:53;9.70;99.90
56240;DHT22;42154;51.992;5.896;2022-11-10T02:21:38;9.80;99.90
56240;DHT22;42154;51.992;5.896;2022-11-10T02:24:22;9.70;99.90
56240;DHT22;42154;51.992;5.896;2022-11-10T02:27:06;9.70;99.90
56240;DHT22;42154;51.992;5.896;2022-11-10T02:29:50;9.80;99.90
56240;DHT22;42154;51.992;5.896;2022-11-10T02:32:34;9.70;99.90
56240;DHT22;42154;51.992;5.896;2022-11-10T02:35:19;9.90;99.90
56240;DHT22;42154;51.992;5.896;2022-11-10T02:38:03;9.80;99.90
56240;DHT22;42154;51.992;5.896;2022-11-10T02:40:48;9.90;99.90
56240;DHT22;42154;51.992;5.896;2022-11-10T02:43:33;9.90;99.90
56240;DHT22;42154;51.992;5.896;2022-11-10T02:46:17;9.90;99.90
56240;DHT22;42154;51.992;5.896;2022-11-10T02:49:02;9.90;99.90
56240;DHT22;42154;51.992;5.896;2022-11-10T02:51:46;10.00;99.90
56240;DHT22;42154;51.992;5.896;2022-11-10T02:54:30;10.00;99.90
56240;DHT22;42154;51.992;5.896;2022-11-10T02:57:14;10.00;99.90
56240;DHT22;42154;51.992;5.896;2022-11-10T02:59:58;10.10;99.90
56240;DHT22;42154;51.992;5.896;2022-11-10T03:02:42;10.10;99.90
56240;DHT22;42154;51.992;5.896;2022-11-10T03:05:28;10.20;99.90
56240;DHT22;42154;51.992;5.896;2022-11-10T03:08:12;10.20;99.90
56240;DHT22;42154;51.992;5.896;2022-11-10T03:10:57;10.20;99.90
56240;DHT22;42154;51.992;5.896;2022-11-10T03:13:41;10.20;99.90
56240;DHT22;42154;51.992;5.896;2022-11-10T03:16:25;10.10;99.90
56240;DHT22;42154;51.992;5.896;2022-11-10T03:19:09;10.10;99.90
56240;DHT22;42154;51.992;5.896;2022-11-10T03:21:53;10.00;99.90
56240;DHT22;42154;51.992;5.896;2022-11-10T03:24:37;10.00;99.90
56240;DHT22;42154;51.992;5.896;2022-11-10T03:27:21;10.00;99.90
56240;DHT22;42154;51.992;5.896;2022-11-10T03:30:06;9.90;99.90
56240;DHT22;42154;51.992;5.896;2022-11-10T03:32:51;9.90;99.90
56240;DHT22;42154;51.992;5.896;2022-11-10T03:35:35;9.90;99.90
56240;DHT22;42154;51.992;5.896;2022-11-10T03:38:20;9.80;99.90
56240;DHT22;42154;51.992;5.896;2022-11-10T03:41:04;9.80;99.90
56240;DHT22;42154;51.992;5.896;2022-11-10T03:43:49;9.80;99.90
56240;DHT22;42154;51.992;5.896;2022-11-10T03:46:33;9.70;99.90
56240;DHT22;42154;51.992;5.896;2022-11-10T03:49:17;9.80;99.90
56240;DHT22;42154;51.992;5.896;2022-11-10T03:52:02;9.70;99.90
56240;DHT22;42154;51.992;5.896;2022-11-10T03:54:47;9.70;99.90
56240;DHT22;42154;51.992;5.896;2022-11-10T03:57:31;9.70;99.90
56240;DHT22;42154;51.992;5.896;2022-11-10T04:00:15;9.70;99.90
56240;DHT22;42154;51.992;5.896;2022-11-10T04:03:00;9.70;99.90
56240;DHT22;42154;51.992;5.896;2022-11-10T04:05:44;9.70;99.90
56240;DHT22;42154;51.992;5.896;2022-11-10T04:08:47;9.60;99.90
56240;DHT22;42154;51.992;5.896;2022-11-10T04:11:43;9.60;99.90
56240;DHT22;42154;51.992;5.896;2022-11-10T04:14:46;9.60;99.90
56240;DHT22;42154;51.992;5.896;2022-11-10T04:17:49;9.60;99.90
56240;DHT22;42154;51.992;5.896;2022-11-10T04:20:34;9.50;99.90
56240;DHT22;42154;51.992;5.896;2022-11-10T04:23:18;9.50;99.90
56240;DHT22;42154;51.992;5.896;2022-11-10T04:26:14;9.50;99.90
56240;DHT22;42154;51.992;5.896;2022-11-10T04:29:15;9.50;99.90
56240;DHT22;42154;51.992;5.896;2022-11-10T04:32:00;9.50;99.90
56240;DHT22;42154;51.992;5.896;2022-11-10T04:34:44;9.50;99.90
56240;DHT22;42154;51.992;5.896;2022-11-10T04:37:28;9.50;99.90
56240;DHT22;42154;51.992;5.896;2022-11-10T04:40:12;9.50;99.90
56240;DHT22;42154;51.992;5.896;2022-11-10T04:42:56;9.50;99.90
56240;DHT22;42154;51.992;5.896;2022-11-10T04:45:41;9.60;99.90
56240;DHT22;42154;51.992;5.896;2022-11-10T04:48:26;9.60;99.90
56240;DHT22;42154;51.992;5.896;2022-11-10T04:51:11;9.60;99.90
56240;DHT22;42154;51.992;5.896;2022-11-10T04:53:56;9.60;99.90
56240;DHT22;42154;51.992;5.896;2022-11-10T04:56:40;9.60;99.90
56240;DHT22;42154;51.992;5.896;2022-11-10T04:59:25;9.60;99.90
56240;DHT22;42154;51.992;5.896;2022-11-10T05:02:09;9.60;99.90
56240;DHT22;42154;51.992;5.896;2022-11-10T05:04:54;9.60;99.90
56240;DHT22;42154;51.992;5.896;2022-11-10T05:07:38;9.60;99.90
56240;DHT22;42154;51.992;5.896;2022-11-10T05:10:22;9.60;99.90
56240;DHT22;42154;51.992;5.896;2022-11-10T05:13:06;9.60;99.90
56240;DHT22;42154;51.992;5.896;2022-11-10T05:15:52;9.50;99.90
56240;DHT22;42154;51.992;5.896;2022-11-10T05:18:37;9.60;99.90
56240;DHT22;42154;51.992;5.896;2022-11-10T05:21:21;9.60;99.90
56240;DHT22;42154;51.992;5.896;2022-11-10T05:24:05;9.60;99.90
56240;DHT22;42154;51.992;5.896;2022-11-10T05:26:50;9.60;99.90
56240;DHT22;42154;51.992;5.896;2022-11-10T05:29:33;9.60;99.90
56240;DHT22;42154;51.992;5.896;2022-11-10T05:32:17;9.70;99.90
56240;DHT22;42154;51.992;5.896;2022-11-10T05:35:02;9.60;99.90
56240;DHT22;42154;51.992;5.896;2022-11-10T05:37:47;9.60;99.90
56240;DHT22;42154;51.992;5.896;2022-11-10T05:40:31;9.50;99.90
56240;DHT22;42154;51.992;5.896;2022-11-10T05:43:16;9.60;99.90
56240;DHT22;42154;51.992;5.896;2022-11-10T05:46:00;9.50;99.90
56240;DHT22;42154;51.992;5.896;2022-11-10T05:48:46;9.50;99.90
56240;DHT22;42154;51.992;5.896;2022-11-10T05:51:31;9.50;99.90
56240;DHT22;42154;51.992;5.896;2022-11-10T05:54:15;9.50;99.90
56240;DHT22;42154;51.992;5.896;2022-11-10T05:56:59;9.50;99.90
56240;DHT22;42154;51.992;5.896;2022-11-10T05:59:43;9.50;99.90
56240;DHT22;42154;51.992;5.896;2022-11-10T06:02:27;9.40;99.90
56240;DHT22;42154;51.992;5.896;2022-11-10T06:05:11;9.40;99.90
56240;DHT22;42154;51.992;5.896;2022-11-10T06:07:56;9.40;99.90
56240;DHT22;42154;51.992;5.896;2022-11-10T06:10:40;9.40;99.90
56240;DHT22;42154;51.992;5.896;2022-11-10T06:13:25;9.40;99.90
56240;DHT22;42154;51.992;5.896;2022-11-10T06:16:09;9.40;99.90
56240;DHT22;42154;51.992;5.896;2022-11-10T06:18:53;9.40;99.90
56240;DHT22;42154;51.992;5.896;2022-11-10T06:21:37;9.40;99.90
56240;DHT22;42154;51.992;5.896;2022-11-10T06:24:22;9.40;99.90
56240;DHT22;42154;51.992;5.896;2022-11-10T06:27:06;9.30;99.90
56240;DHT22;42154;51.992;5.896;2022-11-10T06:29:50;9.30;99.90
56240;DHT22;42154;51.992;5.896;2022-11-10T06:32:34;9.30;99.90
56240;DHT22;42154;51.992;5.896;2022-11-10T06:35:19;9.30;99.90
56240;DHT22;42154;51.992;5.896;2022-11-10T06:38:09;9.30;99.90
56240;DHT22;42154;51.992;5.896;2022-11-10T06:40:53;9.30;99.90
56240;DHT22;42154;51.992;5.896;2022-11-10T06:43:37;9.30;99.90
56240;DHT22;42154;51.992;5.896;2022-11-10T06:46:21;9.30;99.90
56240;DHT22;42154;51.992;5.896;2022-11-10T06:49:05;9.30;99.90
56240;DHT22;42154;51.992;5.896;2022-11-10T06:51:50;9.30;99.90
56240;DHT22;42154;51.992;5.896;2022-11-10T06:54:35;9.30;99.90
56240;DHT22;42154;51.992;5.896;2022-11-10T06:57:19;9.30;99.90
56240;DHT22;42154;51.992;5.896;2022-11-10T07:00:03;9.30;99.90
56240;DHT22;42154;51.992;5.896;2022-11-10T07:02:48;9.30;99.90
56240;DHT22;42154;51.992;5.896;2022-11-10T07:05:41;9.30;99.90
56240;DHT22;42154;51.992;5.896;2022-11-10T07:08:25;9.40;99.90
56240;DHT22;42154;51.992;5.896;2022-11-10T07:11:09;9.40;99.90
56240;DHT22;42154;51.992;5.896;2022-11-10T07:13:54;9.40;99.90
56240;DHT22;42154;51.992;5.896;2022-11-10T07:16:38;9.40;99.90
56240;DHT22;42154;51.992;5.896;2022-11-10T07:19:22;9.40;99.90
56240;DHT22;42154;51.992;5.896;2022-11-10T07:22:07;9.40;99.90
56240;DHT22;42154;51.992;5.896;2022-11-10T07:24:51;9.40;99.90
56240;DHT22;42154;51.992;5.896;2022-11-10T07:27:36;9.40;99.90
56240;DHT22;42154;51.992;5.896;2022-11-10T07:30:20;9.50;99.90
56240;DHT22;42154;51.992;5.896;2022-11-10T07:33:12;9.50;99.90
56240;DHT22;42154;51.992;5.896;2022-11-10T07:35:59;9.50;99.90
56240;DHT22;42154;51.992;5.896;2022-11-10T07:38:43;9.50;99.90
56240;DHT22;42154;51.992;5.896;2022-11-10T07:41:28;9.50;99.90
56240;DHT22;42154;51.992;5.896;2022-11-10T07:44:12;9.60;99.90
56240;DHT22;42154;51.992;5.896;2022-11-10T07:46:56;9.70;99.90
56240;DHT22;42154;51.992;5.896;2022-11-10T07:49:41;9.70;99.90
56240;DHT22;42154;51.992;5.896;2022-11-10T07:52:25;9.70;99.90
56240;DHT22;42154;51.992;5.896;2022-11-10T07:55:09;9.70;99.90
56240;DHT22;42154;51.992;5.896;2022-11-10T07:57:57;9.70;99.90
56240;DHT22;42154;51.992;5.896;2022-11-10T08:00:43;9.80;99.90
56240;DHT22;42154;51.992;5.896;2022-11-10T08:03:27;9.80;99.90
56240;DHT22;42154;51.992;5.896;2022-11-10T08:06:12;9.80;99.90
56240;DHT22;42154;51.992;5.896;2022-11-10T08:08:56;9.80;99.90
56240;DHT22;42154;51.992;5.896;2022-11-10T08:11:40;9.90;99.90
56240;DHT22;42154;51.992;5.896;2022-11-10T08:14:25;10.00;99.90
56240;DHT22;42154;51.992;5.896;2022-11-10T08:17:10;9.90;99.90
56240;DHT22;42154;51.992;5.896;2022-11-10T08:19:54;10.00;99.90
56240;DHT22;42154;51.992;5.896;2022-11-10T08:22:38;10.00;99.90
56240;DHT22;42154;51.992;5.896;2022-11-10T08:25:22;10.00;99.90
56240;DHT22;42154;51.992;5.896;2022-11-10T08:28:09;10.10;99.90
56240;DHT22;42154;51.992;5.896;2022-11-10T08:30:54;10.20;99.90
56240;DHT22;42154;51.992;5.896;2022-11-10T08:33:39;10.20;99.90
56240;DHT22;42154;51.992;5.896;2022-11-10T08:36:23;10.30;99.90
56240;DHT22;42154;51.992;5.896;2022-11-10T08:39:07;10.40;99.90
56240;DHT22;42154;51.992;5.896;2022-11-10T08:41:51;10.40;99.90
56240;DHT22;42154;51.992;5.896;2022-11-10T08:44:35;10.50;99.90
56240;DHT22;42154;51.992;5.896;2022-11-10T08:47:19;10.50;99.90
56240;DHT22;42154;51.992;5.896;2022-11-10T08:50:05;10.60;99.90
56240;DHT22;42154;51.992;5.896;2022-11-10T08:52:50;10.70;99.90
56240;DHT22;42154;51.992;5.896;2022-11-10T08:55:33;10.80;99.90
56240;DHT22;42154;51.992;5.896;2022-11-10T08:58:20;10.90;99.90
56240;DHT22;42154;51.992;5.896;2022-11-10T09:01:09;11.00;99.90
56240;DHT22;42154;51.992;5.896;2022-11-10T09:03:54;11.10;99.90
56240;DHT22;42154;51.992;5.896;2022-11-10T09:06:38;11.10;99.90
56240;DHT22;42154;51.992;5.896;2022-11-10T09:09:25;11.20;99.90
56240;DHT22;42154;51.992;5.896;2022-11-10T09:12:10;11.20;99.90
56240;DHT22;42154;51.992;5.896;2022-11-10T09:14:54;11.30;99.90
56240;DHT22;42154;51.992;5.896;2022-11-10T09:17:39;11.30;99.90
56240;DHT22;42154;51.992;5.896;2022-11-10T09:20:25;11.40;99.90
56240;DHT22;42154;51.992;5.896;2022-11-10T09:23:14;11.40;99.90
56240;DHT22;42154;51.992;5.896;2022-11-10T09:25:59;11.40;99.90
56240;DHT22;42154;51.992;5.896;2022-11-10T09:28:43;11.50;99.90
56240;DHT22;42154;51.992;5.896;2022-11-10T09:31:28;11.50;99.90
56240;DHT22;42154;51.992;5.896;2022-11-10T09:34:12;11.60;99.90
56240;DHT22;42154;51.992;5.896;2022-11-10T09:36:56;11.60;99.90
56240;DHT22;42154;51.992;5.896;2022-11-10T09:39:41;11.60;99.90
56240;DHT22;42154;51.992;5.896;2022-11-10T09:45:20;11.70;99.90
56240;DHT22;42154;51.992;5.896;2022-11-10T09:48:06;11.80;99.90
56240;DHT22;42154;51.992;5.896;2022-11-10T09:51:00;11.80;99.90
56240;DHT22;42154;51.992;5.896;2022-11-10T09:53:55;11.90;99.90
56240;DHT22;42154;51.992;5.896;2022-11-10T09:56:40;12.00;99.90
56240;DHT22;42154;51.992;5.896;2022-11-10T09:59:29;12.10;99.90
56240;DHT22;42154;51.992;5.896;2022-11-10T10:02:44;12.20;99.90
56240;DHT22;42154;51.992;5.896;2022-11-10T10:05:33;12.20;99.90
56240;DHT22;42154;51.992;5.896;2022-11-10T10:11:34;12.40;99.90
56240;DHT22;42154;51.992;5.896;2022-11-10T10:14:34;12.50;99.90
56240;DHT22;42154;51.992;5.896;2022-11-10T10:17:27;12.50;99.90
56240;DHT22;42154;51.992;5.896;2022-11-10T10:23:40;12.60;99.90
56240;DHT22;42154;51.992;5.896;2022-11-10T10:26:30;12.60;99.90
56240;DHT22;42154;51.992;5.896;2022-11-10T10:29:24;12.70;99.90
56240;DHT22;42154;51.992;5.896;2022-11-10T10:32:12;12.80;99.90
56240;DHT22;42154;51.992;5.896;2022-11-10T10:34:56;12.80;99.90
56240;DHT22;42154;51.992;5.896;2022-11-10T10:37:51;12.80;99.90
56240;DHT22;42154;51.992;5.896;2022-11-10T10:40:36;12.90;99.90
56240;DHT22;42154;51.992;5.896;2022-11-10T10:43:20;12.90;99.90
56240;DHT22;42154;51.992;5.896;2022-11-10T10:46:10;13.00;99.90
56240;DHT22;42154;51.992;5.896;2022-11-10T10:52:05;13.10;99.90
56240;DHT22;42154;51.992;5.896;2022-11-10T10:54:59;13.10;99.90
56240;DHT22;42154;51.992;5.896;2022-11-10T10:57:55;13.20;99.90
56240;DHT22;42154;51.992;5.896;2022-11-10T11:00:43;13.30;99.90
56240;DHT22;42154;51.992;5.896;2022-11-10T11:12:00;13.50;99.90
56240;DHT22;42154;51.992;5.896;2022-11-10T11:14:45;13.60;99.90
56240;DHT22;42154;51.992;5.896;2022-11-10T11:17:29;13.70;99.90
56240;DHT22;42154;51.992;5.896;2022-11-10T11:20:14;13.70;99.90
56240;DHT22;42154;51.992;5.896;2022-11-10T11:23:17;13.80;99.90
56240;DHT22;42154;51.992;5.896;2022-11-10T11:26:28;13.90;99.90
56240;DHT22;42154;51.992;5.896;2022-11-10T11:32:48;13.90;99.90
56240;DHT22;42154;51.992;5.896;2022-11-10T11:41:57;14.00;99.90
56240;DHT22;42154;51.992;5.896;2022-11-10T11:45:12;14.10;99.90
56240;DHT22;42154;51.992;5.896;2022-11-10T11:51:11;14.20;99.90
56240;DHT22;42154;51.992;5.896;2022-11-10T12:10:10;14.70;99.90
56240;DHT22;42154;51.992;5.896;2022-11-10T12:15:54;14.90;99.90
56240;DHT22;42154;51.992;5.896;2022-11-10T12:18:48;14.90;99.90
56240;DHT22;42154;51.992;5.896;2022-11-10T12:24:46;15.00;99.90
56240;DHT22;42154;51.992;5.896;2022-11-10T12:27:38;15.00;99.90
56240;DHT22;42154;51.992;5.896;2022-11-10T12:30:23;15.00;99.90
56240;DHT22;42154;51.992;5.896;2022-11-10T12:36:11;15.10;99.90
56240;DHT22;42154;51.992;5.896;2022-11-10T12:39:12;15.10;99.90
56240;DHT22;42154;51.992;5.896;2022-11-10T12:42:02;15.20;99.90
56240;DHT22;42154;51.992;5.896;2022-11-10T12:45:07;15.20;99.90
56240;DHT22;42154;51.992;5.896;2022-11-10T12:47:52;15.20;99.90
56240;DHT22;42154;51.992;5.896;2022-11-10T12:53:38;15.20;99.90
56240;DHT22;42154;51.992;5.896;2022-11-10T12:56:30;15.30;99.90
56240;DHT22;42154;51.992;5.896;2022-11-10T13:02:37;15.20;99.90
56240;DHT22;42154;51.992;5.896;2022-11-10T13:05:26;15.30;99.90
56240;DHT22;42154;51.992;5.896;2022-11-10T13:08:18;15.30;99.90
56240;DHT22;42154;51.992;5.896;2022-11-10T13:11:21;15.30;99.90
56240;DHT22;42154;51.992;5.896;2022-11-10T13:14:28;15.40;99.90
56240;DHT22;42154;51.992;5.896;2022-11-10T13:20:44;15.50;99.90
56240;DHT22;42154;51.992;5.896;2022-11-10T13:23:32;15.50;99.90
56240;DHT22;42154;51.992;5.896;2022-11-10T13:32:29;15.60;99.90
56240;DHT22;42154;51.992;5.896;2022-11-10T13:41:26;15.70;99.90
56240;DHT22;42154;51.992;5.896;2022-11-10T13:44:39;15.70;99.90
56240;DHT22;42154;51.992;5.896;2022-11-10T13:50:45;15.60;99.90
56240;DHT22;42154;51.992;5.896;2022-11-10T13:53:59;15.50;99.90
56240;DHT22;42154;51.992;5.896;2022-11-10T14:00:31;15.40;99.90
56240;DHT22;42154;51.992;5.896;2022-11-10T14:06:47;15.30;99.90
56240;DHT22;42154;51.992;5.896;2022-11-10T14:09:36;15.30;99.90
56240;DHT22;42154;51.992;5.896;2022-11-10T14:15:26;15.20;99.90
56240;DHT22;42154;51.992;5.896;2022-11-10T14:18:40;15.20;99.90
56240;DHT22;42154;51.992;5.896;2022-11-10T14:21:50;15.20;99.90
56240;DHT22;42154;51.992;5.896;2022-11-10T14:24:50;15.10;99.90
56240;DHT22;42154;51.992;5.896;2022-11-10T14:27:37;15.10;99.90
56240;DHT22;42154;51.992;5.896;2022-11-10T14:30:25;15.10;99.90
56240;DHT22;42154;51.992;5.896;2022-11-10T14:33:11;15.10;99.90
56240;DHT22;42154;51.992;5.896;2022-11-10T14:35:59;15.00;99.90
56240;DHT22;42154;51.992;5.896;2022-11-10T14:38:44;15.00;99.90
56240;DHT22;42154;51.992;5.896;2022-11-10T14:41:29;15.00;99.90
56240;DHT22;42154;51.992;5.896;2022-11-10T14:44:24;14.90;99.90
56240;DHT22;42154;51.992;5.896;2022-11-10T14:47:27;14.90;99.90
56240;DHT22;42154;51.992;5.896;2022-11-10T14:53:34;14.90;99.90
56240;DHT22;42154;51.992;5.896;2022-11-10T14:56:27;14.90;99.90
56240;DHT22;42154;51.992;5.896;2022-11-10T14:59:13;14.90;99.90
56240;DHT22;42154;51.992;5.896;2022-11-10T15:01:59;14.90;99.90
56240;DHT22;42154;51.992;5.896;2022-11-10T15:04:46;14.80;99.90
56240;DHT22;42154;51.992;5.896;2022-11-10T15:07:33;14.80;99.90
56240;DHT22;42154;51.992;5.896;2022-11-10T15:10:21;14.80;99.90
56240;DHT22;42154;51.992;5.896;2022-11-10T15:16:30;14.70;99.90
56240;DHT22;42154;51.992;5.896;2022-11-10T15:19:30;14.70;99.90
56240;DHT22;42154;51.992;5.896;2022-11-10T15:22:30;14.60;99.90
56240;DHT22;42154;51.992;5.896;2022-11-10T15:25:38;14.60;99.90
56240;DHT22;42154;51.992;5.896;2022-11-10T15:28:28;14.50;99.90
56240;DHT22;42154;51.992;5.896;2022-11-10T15:31:22;14.50;99.90
56240;DHT22;42154;51.992;5.896;2022-11-10T15:34:28;14.40;99.90
56240;DHT22;42154;51.992;5.896;2022-11-10T15:37:24;14.30;99.90
56240;DHT22;42154;51.992;5.896;2022-11-10T15:46:18;14.10;99.90
56240;DHT22;42154;51.992;5.896;2022-11-10T15:49:02;14.10;99.90
56240;DHT22;42154;51.992;5.896;2022-11-10T15:51:49;13.90;99.90
56240;DHT22;42154;51.992;5.896;2022-11-10T15:54:35;13.90;99.90
56240;DHT22;42154;51.992;5.896;2022-11-10T15:57:19;13.90;99.90
56240;DHT22;42154;51.992;5.896;2022-11-10T16:00:04;13.80;99.90
56240;DHT22;42154;51.992;5.896;2022-11-10T16:02:48;13.80;99.90
56240;DHT22;42154;51.992;5.896;2022-11-10T16:05:32;13.80;99.90
56240;DHT22;42154;51.992;5.896;2022-11-10T16:08:19;13.70;99.90
56240;DHT22;42154;51.992;5.896;2022-11-10T16:11:03;13.80;99.90
56240;DHT22;42154;51.992;5.896;2022-11-10T16:13:48;13.70;99.90
56240;DHT22;42154;51.992;5.896;2022-11-10T16:16:34;13.70;99.90
56240;DHT22;42154;51.992;5.896;2022-11-10T16:19:18;13.70;99.90
56240;DHT22;42154;51.992;5.896;2022-11-10T16:22:03;13.70;99.90
56240;DHT22;42154;51.992;5.896;2022-11-10T16:24:47;13.70;99.90
56240;DHT22;42154;51.992;5.896;2022-11-10T16:27:32;13.60;99.90
56240;DHT22;42154;51.992;5.896;2022-11-10T16:30:17;13.60;99.90
56240;DHT22;42154;51.992;5.896;2022-11-10T16:33:01;13.50;99.90
56240;DHT22;42154;51.992;5.896;2022-11-10T16:35:48;13.50;99.90
56240;DHT22;42154;51.992;5.896;2022-11-10T16:38:34;13.50;99.90
56240;DHT22;42154;51.992;5.896;2022-11-10T16:41:18;13.40;99.90
56240;DHT22;42154;51.992;5.896;2022-11-10T16:44:02;13.40;99.90
56240;DHT22;42154;51.992;5.896;2022-11-10T16:46:50;13.40;99.90
56240;DHT22;42154;51.992;5.896;2022-11-10T16:49:41;13.40;99.90
56240;DHT22;42154;51.992;5.896;2022-11-10T16:52:26;13.40;99.90
56240;DHT22;42154;51.992;5.896;2022-11-10T16:55:11;13.30;99.90
56240;DHT22;42154;51.992;5.896;2022-11-10T16:57:57;13.30;99.90
56240;DHT22;42154;51.992;5.896;2022-11-10T17:00:41;13.30;99.90
56240;DHT22;42154;51.992;5.896;2022-11-10T17:03:33;13.30;99.90
56240;DHT22;42154;51.992;5.896;2022-11-10T17:06:19;13.20;99.90
56240;DHT22;42154;51.992;5.896;2022-11-10T17:09:19;13.20;99.90
56240;DHT22;42154;51.992;5.896;2022-11-10T17:12:05;13.20;99.90
56240;DHT22;42154;51.992;5.896;2022-11-10T17:14:49;13.00;99.90
56240;DHT22;42154;51.992;5.896;2022-11-10T17:17:34;13.00;99.90
56240;DHT22;42154;51.992;5.896;2022-11-10T17:20:27;13.00;99.90
56240;DHT22;42154;51.992;5.896;2022-11-10T17:23:14;12.90;99.90
56240;DHT22;42154;51.992;5.896;2022-11-10T17:25:59;12.90;99.90
56240;DHT22;42154;51.992;5.896;2022-11-10T17:28:44;12.80;99.90
56240;DHT22;42154;51.992;5.896;2022-11-10T17:31:29;12.80;99.90
56240;DHT22;42154;51.992;5.896;2022-11-10T17:34:14;12.80;99.90
56240;DHT22;42154;51.992;5.896;2022-11-10T17:36:58;12.70;99.90
56240;DHT22;42154;51.992;5.896;2022-11-10T17:39:42;12.70;99.90
56240;DHT22;42154;51.992;5.896;2022-11-10T17:42:26;12.70;99.90
56240;DHT22;42154;51.992;5.896;2022-11-10T17:45:19;12.60;99.90
56240;DHT22;42154;51.992;5.896;2022-11-10T17:48:04;12.60;99.90
56240;DHT22;42154;51.992;5.896;2022-11-10T17:50:49;12.50;99.90
56240;DHT22;42154;51.992;5.896;2022-11-10T17:53:34;12.50;99.90
56240;DHT22;42154;51.992;5.896;2022-11-10T17:56:18;12.40;99.90
56240;DHT22;42154;51.992;5.896;2022-11-10T17:59:03;12.40;99.90
56240;DHT22;42154;51.992;5.896;2022-11-10T18:01:47;12.30;99.90
56240;DHT22;42154;51.992;5.896;2022-11-10T18:04:32;12.30;99.90
56240;DHT22;42154;51.992;5.896;2022-11-10T18:07:16;12.20;99.90
56240;DHT22;42154;51.992;5.896;2022-11-10T18:10:00;12.20;99.90
56240;DHT22;42154;51.992;5.896;2022-11-10T18:12:44;12.10;99.90
56240;DHT22;42154;51.992;5.896;2022-11-10T18:15:28;12.10;99.90
56240;DHT22;42154;51.992;5.896;2022-11-10T18:18:14;12.10;99.90
56240;DHT22;42154;51.992;5.896;2022-11-10T18:20:59;12.00;99.90
56240;DHT22;42154;51.992;5.896;2022-11-10T18:23:44;12.00;99.90
56240;DHT22;42154;51.992;5.896;2022-11-10T18:26:28;11.90;99.90
56240;DHT22;42154;51.992;5.896;2022-11-10T18:29:12;11.90;99.90
56240;DHT22;42154;51.992;5.896;2022-11-10T18:31:57;11.90;99.90
56240;DHT22;42154;51.992;5.896;2022-11-10T18:34:41;11.80;99.90
56240;DHT22;42154;51.992;5.896;2022-11-10T18:37:25;11.80;99.90
56240;DHT22;42154;51.992;5.896;2022-11-10T18:40:11;11.80;99.90
56240;DHT22;42154;51.992;5.896;2022-11-10T18:42:57;11.80;99.90
56240;DHT22;42154;51.992;5.896;2022-11-10T18:45:41;11.80;99.90
56240;DHT22;42154;51.992;5.896;2022-11-10T18:48:26;11.70;99.90
56240;DHT22;42154;51.992;5.896;2022-11-10T18:51:10;11.70;99.90
56240;DHT22;42154;51.992;5.896;2022-11-10T18:53:54;11.70;99.90
56240;DHT22;42154;51.992;5.896;2022-11-10T18:56:38;11.70;99.90
56240;DHT22;42154;51.992;5.896;2022-11-10T18:59:22;11.60;99.90
56240;DHT22;42154;51.992;5.896;2022-11-10T19:02:10;11.60;99.90
56240;DHT22;42154;51.992;5.896;2022-11-10T19:04:54;11.60;99.90
56240;DHT22;42154;51.992;5.896;2022-11-10T19:07:39;11.60;99.90
56240;DHT22;42154;51.992;5.896;2022-11-10T19:10:23;11.60;99.90
56240;DHT22;42154;51.992;5.896;2022-11-10T19:13:07;11.60;99.90
56240;DHT22;42154;51.992;5.896;2022-11-10T19:15:51;11.60;99.90
56240;DHT22;42154;51.992;5.896;2022-11-10T19:18:39;11.60;99.90
56240;DHT22;42154;51.992;5.896;2022-11-10T19:21:24;11.60;99.90
56240;DHT22;42154;51.992;5.896;2022-11-10T19:24:12;11.50;99.90
56240;DHT22;42154;51.992;5.896;2022-11-10T19:26:56;11.50;99.90
56240;DHT22;42154;51.992;5.896;2022-11-10T19:29:40;11.50;99.90
56240;DHT22;42154;51.992;5.896;2022-11-10T19:32:24;11.50;99.90